Flight Track Log - Related Links

Times and Time Zones

All times are in EDT time to prevent confusion due to time zone crossing. See the N717AN flight status page for this flight to view local times or setup timezone preferences in your user account.

Time Position Orientation Groundspeed Altitude Reporting Facility
EDT Latitude Longitude Course Direction KTS MPH feet Rate Location/Type
Sat 08:33:18 PM -23.4410 -46.5060 249° West 195 224 3,800  Level FlightAware ADS-B
Sat 08:33:42 PM -23.4490 -46.5290 249° West 209 241 4,300 1,227 Climbing FlightAware ADS-B
Sat 08:34:02 PM -23.4550 -46.5500 253° West 216 249 4,700 1,500 Climbing FlightAware ADS-B
Sat 08:34:22 PM -23.4600 -46.5710 255° West 215 247 5,300 1,200 Climbing FlightAware ADS-B
Sat 08:34:42 PM -23.4540 -46.5890 290° West 213 245 5,500 667 Climbing FlightAware ADS-B
Sat 08:34:49 PM -23.4490 -46.5950 312° West 219 252 5,600 783 Climbing FlightAware ADS-B
Sat 08:35:05 PM -23.4350 -46.6070 322° Northwest 236 272 5,800 973 Climbing FlightAware ADS-B
Sat 08:35:26 PM -23.4180 -46.6250 316° Northwest 250 288 6,200 1,459 Climbing FlightAware ADS-B
Sat 08:35:42 PM -23.4040 -46.6400 315° West 258 297 6,700 2,000 Climbing FlightAware ADS-B
Sat 08:36:02 PM -23.3880 -46.6580 314° West 260 299 7,400 2,250 Climbing FlightAware ADS-B
Sat 08:36:22 PM -23.3710 -46.6770 314° West 260 299 8,200 2,100 Climbing FlightAware ADS-B
Sat 08:36:42 PM -23.3540 -46.6960 314° West 266 306 8,800 1,875 Climbing FlightAware ADS-B
Sat 08:36:54 PM -23.3420 -46.7070 320° Northwest 269 310 9,200 2,100 Climbing FlightAware ADS-B
Sat 08:37:02 PM -23.3320 -46.7120 335° Northwest 270 311 9,500 2,118 Climbing FlightAware ADS-B
Sat 08:37:11 PM -23.3230 -46.7150 343° North 271 312 9,800 1,800 Climbing FlightAware ADS-B
Sat 08:37:22 PM -23.3080 -46.7170 353° North 278 320 10,100 1,200 Climbing FlightAware ADS-B
Sat 08:37:46 PM -23.2780 -46.7020 25° Northeast 316 364 10,500 1,000 Climbing FlightAware ADS-B
Sat 08:37:58 PM -23.2680 -46.6870 54° Northeast 334 384 10,700 1,125 Climbing FlightAware ADS-B
Sat 08:38:18 PM -23.2560 -46.6550 68° East 353 406 11,100 1,158 Climbing FlightAware ADS-B
Sat 08:38:55 PM -23.2360 -46.5900 71° East 383 441 11,800 1,500 Climbing FlightAware ADS-B
Sat 08:39:30 PM -23.2150 -46.5250 71° East 398 458 12,900 2,113 Climbing FlightAware ADS-B
Sat 08:40:06 PM -23.1900 -46.4570 68° East 400 460 14,300 2,250 Climbing FlightAware ADS-B
Sat 08:40:18 PM -23.1760 -46.4370 53° Northeast 399 459 14,700 2,550 Climbing FlightAware ADS-B
Sat 08:40:46 PM -23.1370 -46.4040 38° Northeast 391 450 16,000 2,571 Climbing FlightAware ADS-B
Sat 08:41:00 PM -23.1140 -46.3930 24° Northeast 389 448 16,500 1,174 Climbing FlightAware ADS-B
Sat 08:41:32 PM -23.0800 -46.3850 12° North 398 458 16,900 1,391 Climbing FlightAware ADS-B
Sat 08:42:09 PM -23.0110 -46.3720 10° North 409 471 18,100 1,886 Climbing FlightAware ADS-B
Sat 08:42:42 PM -22.9430 -46.3590 10° North 420 483 19,100 1,826 Climbing FlightAware ADS-B
Sat 08:43:18 PM -22.8770 -46.3460 10° North 427 491 20,200 1,622 Climbing FlightAware ADS-B
Sat 08:43:56 PM -22.8030 -46.3300 11° North 440 506 21,100 1,543 Climbing FlightAware ADS-B
Sat 08:44:28 PM -22.7380 -46.3170 10° North 446 513 22,000 1,662 Climbing FlightAware ADS-B
Sat 08:45:01 PM -22.6710 -46.3030 11° North 449 517 22,900 1,726 Climbing FlightAware ADS-B
Sat 08:45:41 PM -22.5860 -46.2860 10° North 453 521 24,100 1,644 Climbing FlightAware ADS-B
Sat 08:46:14 PM -22.5180 -46.2760 North 455 524 24,900 1,368 Climbing FlightAware ADS-B
Sat 08:46:38 PM -22.4760 -46.2780 357° North 455 524 25,400 1,714 Climbing FlightAware ADS-B
Sat 08:47:10 PM -22.3830 -46.2930 352° North 459 528 26,500 1,545 Climbing FlightAware ADS-B
Sat 08:47:44 PM -22.3320 -46.3030 350° North 462 532 27,100 1,233 Climbing FlightAware ADS-B
Sat 08:48:23 PM -22.2450 -46.3180 351° North 469 540 28,000 1,217 Climbing FlightAware ADS-B
Sat 08:48:53 PM -22.1830 -46.3280 352° North 475 547 28,500 1,029 Climbing FlightAware ADS-B
Sat 08:49:33 PM -22.0870 -46.3450 351° North 490 564 29,200 1,012 Climbing FlightAware ADS-B
Sat 08:50:16 PM -22.0040 -46.3610 350° North 495 570 29,900 1,151 Climbing FlightAware ADS-B
Sat 08:50:46 PM -21.9290 -46.3750 350° North 498 573 30,600 1,048 Climbing FlightAware ADS-B
Sat 08:51:19 PM -21.8520 -46.3880 351° North 507 583 31,000 329 Climbing FlightAware ADS-B
Sat 08:51:59 PM -21.7520 -46.4040 352° North 511 588 31,000  Level FlightAware ADS-B
Sat 08:52:35 PM -21.6410 -46.4220 351° North 512 589 31,000  Level FlightAware ADS-B
Sat 08:53:05 PM -21.5700 -46.4330 352° North 511 588 31,000  Level FlightAware ADS-B
Sat 08:53:38 PM -21.4920 -46.4460 351° North 513 590 31,000  Level FlightAware ADS-B
Sat 08:54:13 PM -21.4100 -46.4600 351° North 512 589 31,000  Level FlightAware ADS-B
Sat 08:54:53 PM -21.3160 -46.4750 352° North 513 590 31,000  Level FlightAware ADS-B
Sat 08:55:34 PM -21.2230 -46.4900 351° North 513 590 31,000  Level FlightAware ADS-B
Sat 08:56:09 PM -21.1390 -46.5040 351° North 514 592 31,000  Level FlightAware ADS-B
Sat 08:56:43 PM -21.0570 -46.5170 352° North 513 590 31,000  Level FlightAware ADS-B
Sat 08:57:18 PM -20.9750 -46.5310 351° North 514 592 31,000  Level FlightAware ADS-B
Sat 08:57:54 PM -20.8920 -46.5440 352° North 514 592 31,000  Level FlightAware ADS-B
Sat 08:58:28 PM -20.8100 -46.5580 351° North 515 593 31,000  Level FlightAware ADS-B
Sat 08:59:04 PM -20.7280 -46.5710 352° North 512 589 31,000  Level FlightAware ADS-B
Sat 08:59:38 PM -20.6450 -46.5840 352° North 511 588 31,000  Level FlightAware ADS-B
Sat 09:00:18 PM -20.5520 -46.5990 351° North 510 587 31,000  Level FlightAware ADS-B
Sat 09:00:50 PM -20.4820 -46.6110 351° North 509 586 31,000  Level FlightAware ADS-B
Sat 09:01:23 PM -20.4000 -46.6260 350° North 509 586 31,000  Level FlightAware ADS-B
Sat 09:01:58 PM -20.3190 -46.6410 350° North 509 586 31,000  Level FlightAware ADS-B
Sat 09:02:34 PM -20.2390 -46.6560 350° North 506 582 31,000 583 Level FlightAware ADS-B
Sat 09:03:10 PM -20.1530 -46.6720 350° North 510 587 31,700 1,000 Climbing FlightAware ADS-B
Sat 09:03:46 PM -20.0670 -46.6870 351° North 516 594 32,200 943 Climbing FlightAware ADS-B
Sat 09:04:20 PM -19.9870 -46.7020 350° North 518 596 32,800 667 Climbing FlightAware ADS-B
Sat 09:04:58 PM -19.8960 -46.7180 351° North 515 593 33,000 171 Climbing FlightAware ADS-B
Sat 09:05:30 PM -19.8210 -46.7320 350° North 517 595 33,000  Level FlightAware ADS-B
Sat 09:06:06 PM -19.7370 -46.7470 350° North 518 596 33,000  Level FlightAware ADS-B
Sat 09:06:40 PM -19.6560 -46.7610 351° North 518 596 33,000  Level FlightAware ADS-B
Sat 09:07:16 PM -19.5700 -46.7770 350° North 518 596 33,000  Level FlightAware ADS-B
Sat 09:07:52 PM -19.4840 -46.7920 351° North 517 595 33,000  Level FlightAware ADS-B
Sat 09:08:24 PM -19.4100 -46.8060 350° North 517 595 33,000  Level FlightAware ADS-B
Sat 09:09:02 PM -19.3190 -46.8220 351° North 517 595 33,000  Level FlightAware ADS-B
Sat 09:09:41 PM -19.2290 -46.8380 350° North 518 596 33,000  Level FlightAware ADS-B
Sat 09:10:12 PM -19.1580 -46.8500 351° North 517 595 33,000  Level FlightAware ADS-B
Sat 09:10:51 PM -19.0600 -46.8640 352° North 518 596 33,000  Level FlightAware ADS-B
Sat 09:11:24 PM -18.9820 -46.8770 351° North 518 596 33,000  Level FlightAware ADS-B
Sat 09:12:04 PM -18.8890 -46.8910 352° North 518 596 33,000  Level FlightAware ADS-B
Sat 09:12:42 PM -18.7960 -46.9060 351° North 519 597 33,000  Level FlightAware ADS-B
Sat 09:13:17 PM -18.7150 -46.9180 352° North 520 598 33,000  Level FlightAware ADS-B
Sat 09:14:02 PM -18.6050 -46.9320 353° North 520 598 33,000  Level FlightAware ADS-B
Sat 09:14:42 PM -18.5100 -46.9450 353° North 521 600 33,000  Level FlightAware ADS-B
Sat 09:15:18 PM -18.4250 -46.9560 353° North 522 601 33,000  Level FlightAware ADS-B
Sat 09:15:53 PM -18.3450 -46.9670 353° North 521 600 33,000  Level FlightAware ADS-B
Sat 09:16:28 PM -18.2570 -46.9780 353° North 521 600 33,000  Level FlightAware ADS-B
Sat 09:17:02 PM -18.1750 -46.9900 352° North 522 601 33,000 87 Level FlightAware ADS-B
Sat 09:17:37 PM -18.0900 -47.0010 353° North 522 601 33,100 600 Climbing FlightAware ADS-B
Sat 09:18:12 PM -18.0080 -47.0120 353° North 521 600 33,700 500 Climbing FlightAware ADS-B
Sat 09:18:49 PM -17.9330 -47.0230 352° North 521 600 33,700 234 Level FlightAware ADS-B
Sat 09:19:29 PM -17.9660 -47.0170 170° South 520 598 34,000 234 Climbing FlightAware ADS-B
Sat 09:20:06 PM -17.8910 -47.0270 353° North 520 598 34,000  Level FlightAware ADS-B
Sat 09:20:42 PM -17.8180 -47.0360 353° North 520 598 34,000  Level FlightAware ADS-B
Sat 09:21:19 PM -17.7430 -47.0460 353° North 520 598 34,000  Level FlightAware ADS-B
Sat 09:21:55 PM -17.6700 -47.0550 353° North 520 598 34,000  Level FlightAware ADS-B
Sat 09:22:32 PM -17.5950 -47.0650 353° North 520 598 34,000  Level FlightAware ADS-B
Sat 09:23:08 PM -17.5220 -47.0740 353° North 520 598 34,000  Level FlightAware ADS-B
Sat 09:23:19 PM -17.2910 -47.1740 338° Northwest 34,000  Level FlightAware ADS-B
Sat 09:23:59 PM -17.2050 -47.2220 332° Northwest 519 597 34,000  Level FlightAware ADS-B
Sat 09:24:29 PM -17.1440 -47.2560 332° Northwest 518 596 34,000  Level FlightAware ADS-B
Sat 09:25:04 PM -17.0710 -47.2960 332° Northwest 516 594 34,000  Level FlightAware ADS-B
Sat 09:25:39 PM -16.9960 -47.3370 332° Northwest 516 594 34,000  Level FlightAware ADS-B
Sat 09:26:19 PM -16.9090 -47.3850 332° Northwest 516 594 34,000  Level FlightAware ADS-B
Sat 09:26:49 PM -16.8470 -47.4200 332° Northwest 516 594 34,000  Level FlightAware ADS-B
Sat 09:27:24 PM -16.7720 -47.4610 332° Northwest 518 596 34,000  Level FlightAware ADS-B
Sat 09:27:59 PM -16.6970 -47.5020 332° Northwest 519 597 34,000  Level FlightAware ADS-B
Sat 09:28:34 PM -16.6220 -47.5430 332° Northwest 520 598 34,000  Level FlightAware ADS-B
Sat 09:29:09 PM -16.5480 -47.5840 332° Northwest 518 596 34,000  Level FlightAware ADS-B
Sat 09:29:44 PM -16.4740 -47.6250 332° Northwest 518 596 34,000  Level FlightAware ADS-B
Sat 09:30:24 PM -16.3870 -47.6730 332° Northwest 519 597 34,000  Level FlightAware ADS-B
Sat 09:30:54 PM -16.3250 -47.7070 332° Northwest 519 597 34,000  Level FlightAware ADS-B
Sat 09:31:29 PM -16.2500 -47.7480 332° Northwest 519 597 34,000  Level FlightAware ADS-B
Sat 09:32:04 PM -16.1780 -47.7870 333° Northwest 518 596 34,000  Level FlightAware ADS-B
Sat 09:32:44 PM -16.0890 -47.8360 332° Northwest 518 596 34,000  Level FlightAware ADS-B
Sat 09:33:19 PM -16.0150 -47.8760 333° Northwest 518 596 34,000  Level FlightAware ADS-B
Sat 09:33:49 PM -15.9540 -47.9100 332° Northwest 519 597 34,000  Level FlightAware ADS-B
Sat 09:34:29 PM -15.8700 -47.9560 332° Northwest 519 597 34,000  Level FlightAware ADS-B
Sat 09:35:04 PM -15.7930 -47.9980 332° Northwest 518 596 34,000  Level FlightAware ADS-B
Sat 09:35:34 PM -15.7290 -48.0320 333° Northwest 516 594 34,000  Level FlightAware ADS-B
Sat 09:36:04 PM -15.6650 -48.0680 332° Northwest 516 594 34,000  Level FlightAware ADS-B
Sat 09:36:39 PM -15.5920 -48.1070 333° Northwest 517 595 34,000  Level FlightAware ADS-B
Sat 09:37:14 PM -15.5170 -48.1480 332° Northwest 518 596 34,000  Level FlightAware ADS-B
Sat 09:37:54 PM -15.4330 -48.1940 332° Northwest 519 597 34,000  Level FlightAware ADS-B
Sat 09:38:24 PM -15.3680 -48.2290 333° Northwest 519 597 34,000  Level FlightAware ADS-B
Sat 09:38:59 PM -15.2930 -48.2690 333° Northwest 518 596 34,000  Level FlightAware ADS-B
Sat 09:39:39 PM -15.2080 -48.3150 332° Northwest 518 596 34,000  Level FlightAware ADS-B
Sat 09:40:09 PM -15.1510 -48.3470 332° Northwest 518 596 34,000  Level FlightAware ADS-B
Sat 09:40:44 PM -15.0690 -48.3910 333° Northwest 519 597 34,000  Level FlightAware ADS-B
Sat 09:41:19 PM -14.9950 -48.4310 332° Northwest 520 598 34,000  Level FlightAware ADS-B
Sat 09:41:54 PM -14.9260 -48.4680 333° Northwest 522 601 34,000  Level FlightAware ADS-B
Sat 09:42:27 PM -14.8520 -48.5080 332° Northwest 522 601 34,000  Level FlightAware ADS-B
Sat 09:43:09 PM -14.7590 -48.5580 333° Northwest 523 602 34,000  Level FlightAware ADS-B
Sat 09:43:39 PM -14.6950 -48.5920 333° Northwest 523 602 34,000  Level FlightAware ADS-B
Sat 09:44:14 PM -14.6200 -48.6330 332° Northwest 523 602 34,000  Level FlightAware ADS-B
Sat 09:44:59 PM -14.5380 -48.6760 333° Northwest 523 602 34,000  Level FlightAware ADS-B
Sat 09:45:35 PM -14.4720 -48.7110 333° Northwest 523 602 34,000  Level FlightAware ADS-B
Sat 09:46:12 PM -14.4050 -48.7460 333° Northwest 523 602 34,000  Level FlightAware ADS-B
Sat 09:46:48 PM -14.3390 -48.7810 333° Northwest 523 602 34,000  Level FlightAware ADS-B
Sat 09:47:24 PM -14.2730 -48.8160 333° Northwest 523 602 34,000  Level FlightAware ADS-B
Sat 09:48:01 PM -14.2050 -48.8510 333° Northwest 523 602 34,000  Level FlightAware ADS-B
Sat 09:48:37 PM -14.1390 -48.8860 333° Northwest 523 602 34,000  Level FlightAware ADS-B
Sat 09:49:13 PM -14.0730 -48.9210 333° Northwest 523 602 34,000  Level FlightAware ADS-B
Sat 09:49:49 PM -14.0070 -48.9550 333° Northwest 523 602 34,000  Level FlightAware ADS-B
Sat 09:50:25 PM -13.9410 -48.9900 333° Northwest 523 602 34,000  Level FlightAware ADS-B
Sat 09:51:02 PM -13.8730 -49.0260 333° Northwest 523 602 34,000  Level FlightAware ADS-B
Sat 09:51:38 PM -13.8070 -49.0600 333° Northwest 523 602 34,000  Level FlightAware ADS-B
Sat 09:52:14 PM -13.7410 -49.0950 333° Northwest 523 602 34,000  Level FlightAware ADS-B
Sat 09:52:50 PM -13.6750 -49.1290 333° Northwest 523 602 34,000  Level FlightAware ADS-B
Sat 09:53:26 PM -13.6090 -49.1640 333° Northwest 523 602 34,000  Level FlightAware ADS-B
Sat 09:54:02 PM -13.5430 -49.1990 333° Northwest 523 602 34,000  Level FlightAware ADS-B
Sat 09:55:36 PM -13.1530 -49.4170 331° Northwest 529 609 34,000  Level FlightAware ADS-B
Sat 09:56:09 PM -13.0770 -49.4570 333° Northwest 529 609 34,000  Level FlightAware ADS-B
Sat 09:56:52 PM -12.9920 -49.5030 332° Northwest 528 608 34,000  Level FlightAware ADS-B
Sat 09:57:28 PM -12.9260 -49.5390 332° Northwest 528 608 34,000  Level FlightAware ADS-B
Sat 09:58:04 PM -12.8600 -49.5750 332° Northwest 528 608 34,000  Level FlightAware ADS-B
Sat 09:58:40 PM -12.7940 -49.6110 332° Northwest 528 608 34,000  Level FlightAware ADS-B
Sat 09:59:17 PM -12.7270 -49.6480 332° Northwest 528 608 34,000  Level FlightAware ADS-B
Sat 09:59:53 PM -12.6610 -49.6840 332° Northwest 528 608 34,000  Level FlightAware ADS-B
Sat 10:00:31 PM -12.5910 -49.7220 332° Northwest 528 608 34,000  Level FlightAware ADS-B
Sat 10:01:07 PM -12.5250 -49.7580 332° Northwest 528 608 34,000  Level FlightAware ADS-B
Sat 10:01:43 PM -12.4590 -49.7940 332° Northwest 528 608 34,000  Level FlightAware ADS-B
Sat 10:02:19 PM -12.3930 -49.8300 332° Northwest 528 608 34,000  Level FlightAware ADS-B
Sat 10:02:55 PM -12.3270 -49.8650 333° Northwest 528 608 34,000  Level FlightAware ADS-B
Sat 10:03:31 PM -12.2610 -49.9010 332° Northwest 528 608 34,000  Level FlightAware ADS-B
Sat 10:04:07 PM -12.1950 -49.9370 332° Northwest 528 608 34,000  Level FlightAware ADS-B
Sat 10:04:43 PM -12.1290 -49.9730 332° Northwest 528 608 34,000  Level FlightAware ADS-B
Sat 10:05:19 PM -12.0630 -50.0090 332° Northwest 528 608 34,000  Level FlightAware ADS-B
Sat 10:05:55 PM -11.9970 -50.0450 332° Northwest 528 608 34,000  Level FlightAware ADS-B
Sat 10:08:00 PM -11.7490 -50.1440 339° North  Level Estimated
Sat 10:09:00 PM -11.6299 -50.1915 339° North  Level Estimated
Sat 10:10:00 PM -11.5108 -50.2389 339° North  Level Estimated
Sat 10:11:00 PM -11.3917 -50.2863 339° North  Level Estimated
Sat 10:12:00 PM -11.2715 -50.3340 339° North  Level Estimated
Sat 10:13:00 PM -11.1513 -50.3818 339° North  Level Estimated
Sat 10:14:00 PM -11.0311 -50.4295 339° North  Level Estimated
Sat 10:15:00 PM -10.9109 -50.4771 339° North  Level Estimated
Sat 10:16:00 PM -10.7907 -50.5248 339° North  Level Estimated
Sat 10:17:00 PM -10.6705 -50.5723 339° North  Level Estimated
Sat 10:18:00 PM -10.5502 -50.6199 339° North  Level Estimated
Sat 10:19:00 PM -10.4300 -50.6674 339° North  Level Estimated
Sat 10:20:00 PM -10.3097 -50.7149 339° North  Level Estimated
Sat 10:21:00 PM -10.1895 -50.7623 339° North  Level Estimated
Sat 10:22:00 PM -10.0692 -50.8097 339° North  Level Estimated
Sat 10:23:00 PM -9.9489 -50.8571 339° North  Level Estimated
Sat 10:24:00 PM -9.8287 -50.9044 339° North  Level Estimated
Sat 10:25:00 PM -9.7084 -50.9517 339° North  Level Estimated
Sat 10:26:00 PM -9.5881 -50.9989 339° North  Level Estimated
Sat 10:27:00 PM -9.4678 -51.0462 339° North  Level Estimated
Sat 10:28:00 PM -9.3475 -51.0934 339° North  Level Estimated
Sat 10:29:00 PM -9.2272 -51.1405 339° North  Level Estimated
Sat 10:30:00 PM -9.1066 -51.1877 339° North  Level Estimated
Sat 10:31:00 PM -8.9861 -51.2349 339° North  Level Estimated
Sat 10:32:00 PM -8.8655 -51.2821 339° North  Level Estimated
Sat 10:33:00 PM -8.7450 -51.3292 339° North  Level Estimated
Sat 10:34:00 PM -8.6244 -51.3763 339° North  Level Estimated
Sat 10:35:00 PM -8.5038 -51.4233 339° North  Level Estimated
Sat 10:36:00 PM -8.3833 -51.4704 339° North  Level Estimated
Sat 10:37:00 PM -8.2627 -51.5174 339° North  Level Estimated
Sat 10:38:00 PM -8.1421 -51.5643 339° North  Level Estimated
Sat 10:39:00 PM -8.0215 -51.6113 339° North  Level Estimated
Sat 10:40:00 PM -7.9009 -51.6582 339° North  Level Estimated
Sat 10:41:00 PM -7.7803 -51.7051 339° North  Level Estimated
Sat 10:42:00 PM -7.6597 -51.7519 339° North  Level Estimated
Sat 10:43:00 PM -7.5391 -51.7988 339° North  Level Estimated
Sat 10:44:00 PM -7.4185 -51.8456 339° North  Level Estimated
Sat 10:45:00 PM -7.2979 -51.8924 339° North  Level Estimated
Sat 10:46:00 PM -7.1772 -51.9391 339° North  Level Estimated
Sat 10:47:00 PM -7.0566 -51.9859 339° North  Level Estimated
Sat 10:48:00 PM -6.9360 -52.0326 339° North  Level Estimated
Sat 10:49:00 PM -6.8153 -52.0793 339° North  Level Estimated
Sat 10:50:00 PM -6.6947 -52.1259 339° North  Level Estimated
Sat 10:51:00 PM -6.5740 -52.1726 339° North  Level Estimated
Sat 10:52:00 PM -6.4534 -52.2192 339° North  Level Estimated
Sat 10:53:00 PM -6.3327 -52.2658 339° North  Level Estimated
Sat 10:54:00 PM -6.2121 -52.3123 339° North  Level Estimated
Sat 10:55:00 PM -6.0914 -52.3589 339° North  Level Estimated
Sat 10:56:00 PM -5.9707 -52.4054 339° North  Level Estimated
Sat 10:57:00 PM -5.8501 -52.4519 339° North  Level Estimated
Sat 10:58:00 PM -5.7294 -52.4984 339° North  Level Estimated
Sat 10:59:00 PM -5.6087 -52.5449 339° North  Level Estimated
Sat 11:00:00 PM -5.4880 -52.5913 339° North  Level Estimated
Sat 11:01:00 PM -5.3675 -52.6377 339° North  Level Estimated
Sat 11:02:00 PM -5.2471 -52.6840 339° North  Level Estimated
Sat 11:03:00 PM -5.1266 -52.7303 339° North  Level Estimated
Sat 11:04:00 PM -5.0061 -52.7766 339° North  Level Estimated
Sat 11:05:00 PM -4.8857 -52.8229 339° North  Level Estimated
Sat 11:06:00 PM -4.7652 -52.8692 339° North  Level Estimated
Sat 11:07:00 PM -4.6447 -52.9154 339° North  Level Estimated
Sat 11:08:00 PM -4.5242 -52.9616 339° North  Level Estimated
Sat 11:09:00 PM -4.4037 -53.0078 339° North  Level Estimated
Sat 11:10:00 PM -4.2832 -53.0540 339° North  Level Estimated
Sat 11:11:00 PM -4.1627 -53.1002 339° North  Level Estimated
Sat 11:12:00 PM -4.0422 -53.1464 339° North  Level Estimated
Sat 11:13:00 PM -3.9217 -53.1925 339° North  Level Estimated
Sat 11:14:00 PM -3.8012 -53.2387 339° North  Level Estimated
Sat 11:15:00 PM -3.6807 -53.2848 339° North  Level Estimated
Sat 11:16:00 PM -3.5602 -53.3309 339° North  Level Estimated
Sat 11:17:00 PM -3.4397 -53.3770 339° North  Level Estimated
Sat 11:18:00 PM -3.3189 -53.4232 339° North  Level Estimated
Sat 11:19:00 PM -3.1982 -53.4694 339° North  Level Estimated
Sat 11:20:00 PM -3.0775 -53.5155 339° North  Level Estimated
Sat 11:21:00 PM -2.9567 -53.5617 339° North  Level Estimated
Sat 11:22:00 PM -2.8360 -53.6078 339° North  Level Estimated
Sat 11:23:00 PM -2.7152 -53.6539 339° North  Level Estimated
Sat 11:24:00 PM -2.5945 -53.7000 339° North  Level Estimated
Sat 11:25:00 PM -2.4737 -53.7462 339° North  Level Estimated
Sat 11:26:00 PM -2.3530 -53.7923 339° North  Level Estimated
Sat 11:27:00 PM -2.2322 -53.8383 339° North  Level Estimated
Sat 11:28:00 PM -2.1115 -53.8844 339° North  Level Estimated
Sat 11:29:00 PM -1.9907 -53.9305 339° North  Level Estimated
Sat 11:30:00 PM -1.8700 -53.9766 339° North  Level Estimated
Sat 11:31:00 PM -1.7492 -54.0226 339° North  Level Estimated
Sat 11:32:00 PM -1.6284 -54.0687 339° North  Level Estimated
Sat 11:33:00 PM -1.5077 -54.1147 339° North  Level Estimated
Sat 11:34:00 PM -1.3869 -54.1608 339° North  Level Estimated
Sat 11:35:00 PM -1.2662 -54.2068 339° North  Level Estimated
Sat 11:36:00 PM -1.1454 -54.2529 339° North  Level Estimated
Sat 11:37:00 PM -1.0246 -54.2989 339° North  Level Estimated
Sat 11:38:00 PM -0.9039 -54.3449 339° North  Level Estimated
Sat 11:39:00 PM -0.7831 -54.3910 339° North  Level Estimated
Sat 11:40:00 PM -0.6623 -54.4370 339° North  Level Estimated
Sat 11:41:00 PM -0.5416 -54.4830 339° North  Level Estimated
Sat 11:42:00 PM -0.4208 -54.5290 339° North  Level Estimated
Sat 11:43:00 PM -0.3000 -54.5750 339° North  Level Estimated
Sat 11:44:00 PM -0.1793 -54.6211 339° North  Level Estimated
Sat 11:45:00 PM -0.0585 -54.6671 339° North  Level Estimated
Sat 11:46:00 PM 0.0623 -54.7131 339° North  Level Estimated
Sat 11:47:00 PM 0.1831 -54.7591 339° North  Level Estimated
Sat 11:48:00 PM 0.3038 -54.8051 339° North  Level Estimated
Sat 11:49:00 PM 0.4246 -54.8512 339° North  Level Estimated
Sat 11:50:00 PM 0.5454 -54.8972 339° North  Level Estimated
Sat 11:51:00 PM 0.6661 -54.9432 339° North  Level Estimated
Sat 11:52:00 PM 0.7869 -54.9892 339° North  Level Estimated
Sat 11:53:00 PM 0.9077 -55.0353 339° North  Level Estimated
Sat 11:54:00 PM 1.0284 -55.0813 339° North  Level Estimated
Sat 11:55:00 PM 1.1492 -55.1273 339° North  Level Estimated
Sat 11:56:00 PM 1.2700 -55.1734 339° North  Level Estimated
Sat 11:57:00 PM 1.3907 -55.2194 339° North  Level Estimated
Sat 11:58:00 PM 1.5115 -55.2654 339° North  Level Estimated
Sat 11:59:00 PM 1.6322 -55.3115 339° North  Level Estimated
Sun 12:00:00 AM 1.7530 -55.3576 339° North  Level Estimated
Sun 12:01:00 AM 1.8737 -55.4036 339° North  Level Estimated
Sun 12:02:00 AM 1.9945 -55.4497 339° North  Level Estimated
Sun 12:03:00 AM 2.1153 -55.4958 339° North  Level Estimated
Sun 12:04:00 AM 2.2360 -55.5418 339° North  Level Estimated
Sun 12:05:00 AM 2.3568 -55.5879 339° North  Level Estimated
Sun 12:06:00 AM 2.4775 -55.6340 339° North  Level Estimated
Sun 12:07:00 AM 2.5983 -55.6801 339° North  Level Estimated
Sun 12:08:00 AM 2.7190 -55.7263 339° North  Level Estimated
Sun 12:09:00 AM 2.8398 -55.7724 339° North  Level Estimated
Sun 12:10:00 AM 2.9605 -55.8185 339° North  Level Estimated
Sun 12:11:00 AM 3.0812 -55.8647 339° North  Level Estimated
Sun 12:12:00 AM 3.2020 -55.9108 339° North  Level Estimated
Sun 12:13:00 AM 3.3232 -55.9572 339° North  Level Estimated
Sun 12:14:00 AM 3.4444 -56.0035 339° North  Level Estimated
Sun 12:15:00 AM 3.5655 -56.0499 339° North  Level Estimated
Sun 12:16:00 AM 3.6867 -56.0962 339° North  Level Estimated
Sun 12:17:00 AM 3.8079 -56.1426 339° North  Level Estimated
Sun 12:18:00 AM 3.9291 -56.1890 339° North  Level Estimated
Sun 12:19:00 AM 4.0503 -56.2354 339° North  Level Estimated
Sun 12:20:00 AM 4.1714 -56.2819 339° North  Level Estimated
Sun 12:21:00 AM 4.2926 -56.3283 339° North  Level Estimated
Sun 12:22:00 AM 4.4138 -56.3748 339° North  Level Estimated
Sun 12:23:00 AM 4.5349 -56.4212 339° North  Level Estimated
Sun 12:24:00 AM 4.6561 -56.4677 339° North  Level Estimated
Sun 12:25:00 AM 4.7772 -56.5142 339° North  Level Estimated
Sun 12:26:00 AM 4.8984 -56.5607 339° North  Level Estimated
Sun 12:27:00 AM 5.0195 -56.6073 339° North  Level Estimated
Sun 12:28:00 AM 5.1407 -56.6538 339° North  Level Estimated
Sun 12:29:00 AM 5.2618 -56.7004 339° North  Level Estimated
Sun 12:30:00 AM 5.3830 -56.7470 339° North  Level Estimated
Sun 12:31:00 AM 5.5041 -56.7936 339° North  Level Estimated
Sun 12:32:00 AM 5.6252 -56.8402 339° North  Level Estimated
Sun 12:33:00 AM 5.7464 -56.8869 339° North  Level Estimated
Sun 12:34:00 AM 5.8675 -56.9335 339° North  Level Estimated
Sun 12:35:00 AM 5.9886 -56.9802 339° North  Level Estimated
Sun 12:36:00 AM 6.1097 -57.0269 339° North  Level Estimated
Sun 12:37:00 AM 6.2308 -57.0737 339° North  Level Estimated
Sun 12:38:00 AM 6.3519 -57.1204 339° North  Level Estimated
Sun 12:39:00 AM 6.4730 -57.1672 339° North  Level Estimated
Sun 12:40:00 AM 6.5941 -57.2140 339° North  Level Estimated
Sun 12:41:00 AM 6.7152 -57.2608 339° North  Level Estimated
Sun 12:42:00 AM 6.8363 -57.3076 339° North  Level Estimated
Sun 12:43:00 AM 6.9574 -57.3545 339° North  Level Estimated
Sun 12:44:00 AM 7.0785 -57.4014 339° North  Level Estimated
Sun 12:45:00 AM 7.1996 -57.4483 339° North  Level Estimated
Sun 12:46:00 AM 7.3207 -57.4952 339° North  Level Estimated
Sun 12:47:00 AM 7.4417 -57.5422 339° North  Level Estimated
Sun 12:47:50 AM 7.5950 -62.4850 339° North 496 571 34,000  Level FlightAware ADS-B
Sun 12:48:00 AM 7.5628 -57.5892 339° North  Level Estimated
Sun 12:48:32 AM 7.6740 -62.5160 339° North 496 571 34,000  Level FlightAware ADS-B
Sun 12:49:06 AM 7.7580 -62.5480 339° North 495 570 34,000  Level FlightAware ADS-B
Sun 12:49:43 AM 7.8380 -62.5780 340° North 494 568 34,000  Level FlightAware ADS-B
Sun 12:50:20 AM 7.9190 -62.6090 339° North 494 568 34,000  Level FlightAware ADS-B
Sun 12:50:56 AM 7.9970 -62.6390 339° North 494 568 34,000  Level FlightAware ADS-B
Sun 12:51:28 AM 8.0630 -62.6650 339° North 493 567 34,000  Level FlightAware ADS-B
Sun 12:52:04 AM 8.1420 -62.6950 339° North 494 568 34,000  Level FlightAware ADS-B
Sun 12:52:38 AM 8.2150 -62.7230 339° North 493 567 34,000  Level FlightAware ADS-B
Sun 12:53:13 AM 8.2890 -62.7500 340° North 494 568 34,000  Level FlightAware ADS-B
Sun 12:53:50 AM 8.3720 -62.7750 343° North 496 571 34,000  Level FlightAware ADS-B
Sun 12:54:24 AM 8.4450 -62.7950 345° North 496 571 34,000  Level FlightAware ADS-B
Sun 12:54:59 AM 8.5240 -62.8160 345° North 497 572 34,000  Level FlightAware ADS-B
Sun 12:55:35 AM 8.6020 -62.8380 344° North 496 571 34,000  Level FlightAware ADS-B
Sun 12:56:12 AM 8.6870 -62.8610 345° North 494 568 34,000  Level FlightAware ADS-B
Sun 12:56:44 AM 8.7590 -62.8810 345° North 493 567 34,000  Level FlightAware ADS-B
Sun 12:57:20 AM 8.8380 -62.9030 345° North 493 567 34,000  Level FlightAware ADS-B
Sun 12:57:52 AM 8.9050 -62.9220 344° North 494 568 34,000  Level FlightAware ADS-B
Sun 12:58:28 AM 8.9860 -62.9440 345° North 494 568 34,000  Level FlightAware ADS-B
Sun 12:59:04 AM 9.0680 -62.9660 345° North 494 568 34,000  Level FlightAware ADS-B
Sun 12:59:41 AM 9.1480 -62.9880 345° North 493 567 34,000  Level FlightAware ADS-B
Sun 01:00:12 AM 9.2190 -63.0080 344° North 492 566 34,000  Level FlightAware ADS-B
Sun 01:00:48 AM 9.2970 -63.0300 344° North 492 566 34,000  Level FlightAware ADS-B
Sun 01:01:24 AM 9.3770 -63.0520 345° North 492 566 34,000  Level FlightAware ADS-B
Sun 01:02:00 AM 9.4550 -63.0730 345° North 491 565 34,000  Level FlightAware ADS-B
Sun 01:02:34 AM 9.5320 -63.0940 345° North 491 565 34,000  Level FlightAware ADS-B
Sun 01:03:10 AM 9.6090 -63.1160 344° North 491 565 34,000  Level FlightAware ADS-B
Sun 01:03:42 AM 9.6810 -63.1360 345° North 492 566 34,000  Level FlightAware ADS-B
Sun 01:04:16 AM 9.7530 -63.1640 339° North 491 565 34,000  Level FlightAware ADS-B
Sun 01:04:54 AM 9.8260 -63.2090 329° Northwest 492 566 34,000  Level FlightAware ADS-B
Sun 01:05:30 AM 9.8950 -63.2570 326° Northwest 491 565 34,000  Level FlightAware ADS-B
Sun 01:06:02 AM 9.9540 -63.2980 326° Northwest 491 565 34,000  Level FlightAware ADS-B
Sun 01:06:38 AM 10.0220 -63.3450 326° Northwest 492 566 34,000  Level FlightAware ADS-B
Sun 01:07:16 AM 10.0930 -63.3940 326° Northwest 492 566 34,000 88 Level FlightAware ADS-B
Sun 01:07:46 AM 10.1510 -63.4340 326° Northwest 495 570 34,100 882 Climbing FlightAware ADS-B
Sun 01:08:24 AM 10.2240 -63.4840 326° Northwest 492 566 35,000 1,378 Climbing FlightAware ADS-B
Sun 01:09:00 AM 10.2900 -63.5290 326° Northwest 490 564 35,800 833 Climbing FlightAware ADS-B
Sun 01:09:36 AM 10.3590 -63.5770 326° Northwest 489 563 36,000 176 Climbing FlightAware ADS-B
Sun 01:10:08 AM 10.4180 -63.6180 326° Northwest 491 565 36,000  Level FlightAware ADS-B
Sun 01:10:46 AM 10.4910 -63.6680 326° Northwest 492 566 36,000  Level FlightAware ADS-B
Sun 01:11:26 AM 10.5660 -63.7200 326° Northwest 494 568 36,000  Level FlightAware ADS-B
Sun 01:12:02 AM 10.6350 -63.7670 326° Northwest 494 568 36,000  Level FlightAware ADS-B
Sun 01:12:37 AM 10.7000 -63.8120 326° Northwest 494 568 36,000  Level FlightAware ADS-B
Sun 01:13:11 AM 10.7580 -63.8510 327° Northwest 493 567 36,000  Level FlightAware ADS-B
Sun 01:13:45 AM 10.8310 -63.9000 327° Northwest 494 568 36,000  Level FlightAware ADS-B
Sun 01:14:31 AM 10.9110 -63.9540 326° Northwest 493 567 36,000  Level FlightAware ADS-B
Sun 01:14:43 AM 10.9460 -63.9640 344° North 494 568 36,000  Level FlightAware ADS-B
Sun 01:15:19 AM 11.0250 -63.9910 341° North 495 570 36,000  Level FlightAware ADS-B
Sun 01:15:55 AM 11.1040 -64.0150 343° North 496 571 36,000  Level FlightAware ADS-B
Sun 01:16:27 AM 11.1760 -64.0370 343° North 495 570 36,000  Level FlightAware ADS-B
Sun 01:17:04 AM 11.2470 -64.0600 342° North 495 570 36,000  Level FlightAware ADS-B
Sun 01:17:45 AM 11.3430 -64.0900 343° North 494 568 36,000  Level FlightAware ADS-B
Sun 01:18:21 AM 11.4250 -64.1160 343° North 494 568 36,000  Level FlightAware ADS-B
Sun 01:18:57 AM 11.5050 -64.1410 343° North 491 565 36,000  Level FlightAware ADS-B
Sun 01:19:47 AM 11.6020 -64.1730 342° North 491 565 36,000  Level FlightAware ADS-B
Sun 01:20:17 AM 11.6780 -64.1960 343° North 489 563 36,000  Level FlightAware ADS-B
Sun 01:20:53 AM 11.7560 -64.2200 343° North 489 563 36,000  Level FlightAware ADS-B
Sun 01:21:25 AM 11.8210 -64.2410 342° North 488 562 36,000  Level FlightAware ADS-B
Sun 01:22:05 AM 11.9130 -64.2700 343° North 490 564 36,000  Level FlightAware ADS-B
Sun 01:22:39 AM 11.9740 -64.2900 342° North 490 564 36,000  Level FlightAware ADS-B
Sun 01:23:16 AM 12.0420 -64.3130 342° North 490 564 36,000  Level FlightAware ADS-B
Sun 01:23:51 AM 12.1440 -64.3430 344° North 490 564 36,000  Level FlightAware ADS-B
Sun 01:24:27 AM 12.2210 -64.3670 343° North 491 565 36,000  Level FlightAware ADS-B
Sun 01:25:12 AM 12.3070 -64.3960 342° North 491 565 36,000  Level FlightAware ADS-B
Sun 01:25:48 AM 12.3730 -64.4180 342° North 491 565 36,000  Level FlightAware ADS-B
Sun 01:26:24 AM 12.4390 -64.4400 342° North 491 565 36,000  Level FlightAware ADS-B
Sun 01:27:00 AM 12.5050 -64.4620 342° North 491 565 36,000  Level FlightAware ADS-B
Sun 01:27:31 AM 12.6110 -64.4940 344° North 488 562 36,000  Level FlightAware ADS-B
Sun 01:28:28 AM 12.7250 -64.5310 342° North 486 559 36,000  Level FlightAware ADS-B
Sun 01:29:03 AM 12.8080 -64.5580 342° North 488 562 36,000  Level FlightAware ADS-B
Sun 01:29:40 AM 12.8750 -64.5800 342° North 488 562 36,000  Level FlightAware ADS-B
Sun 01:30:16 AM 12.9410 -64.6020 342° North 488 562 36,000  Level FlightAware ADS-B
Sun 01:31:04 AM 13.0290 -64.6310 342° North 488 562 36,000  Level FlightAware ADS-B
Sun 01:31:40 AM 13.0940 -64.6530 342° North 488 562 36,000  Level FlightAware ADS-B
Sun 01:32:16 AM 13.1600 -64.6750 342° North 488 562 36,000  Level FlightAware ADS-B
Sun 01:32:52 AM 13.2260 -64.6970 342° North 488 562 36,000  Level FlightAware ADS-B
Sun 01:33:40 AM 13.4090 -64.7510 344° North 492 566 36,000  Level FlightAware ADS-B
Sun 01:34:13 AM 13.4900 -64.7760 343° North 489 563 36,000  Level FlightAware ADS-B
Sun 01:35:05 AM 13.5930 -64.8100 342° North 489 563 36,000  Level FlightAware ADS-B
Sun 01:35:41 AM 13.6580 -64.8320 342° North 489 563 36,000  Level FlightAware ADS-B
Sun 01:36:17 AM 13.7240 -64.8540 342° North 489 563 36,000  Level FlightAware ADS-B
Sun 01:37:03 AM 13.8540 -64.8920 344° North 489 563 36,000  Level FlightAware ADS-B
Sun 01:37:41 AM 13.9240 -64.9150 342° North 489 563 36,000  Level FlightAware ADS-B
Sun 01:38:18 AM 13.9910 -64.9380 342° North 489 563 36,000  Level FlightAware ADS-B
Sun 01:38:55 AM 14.0590 -64.9600 343° North 489 563 36,000  Level FlightAware ADS-B
Sun 01:39:31 AM 14.1250 -64.9820 342° North 489 563 36,000  Level FlightAware ADS-B
Sun 01:40:07 AM 14.1910 -65.0050 341° North 489 563 36,000  Level FlightAware ADS-B
Sun 01:40:44 AM 14.2580 -65.0270 342° North 489 563 36,000  Level FlightAware ADS-B
Sun 01:41:21 AM 14.3260 -65.0500 342° North 489 563 36,000  Level FlightAware ADS-B
Sun 01:41:58 AM 14.3940 -65.0730 342° North 489 563 36,000  Level FlightAware ADS-B
Sun 01:42:34 AM 14.4600 -65.0950 342° North 489 563 36,000  Level FlightAware ADS-B
Sun 01:43:10 AM 14.5260 -65.1170 342° North 489 563 36,000  Level FlightAware ADS-B
Sun 01:43:46 AM 14.5910 -65.1390 342° North 489 563 36,000  Level FlightAware ADS-B
Sun 01:44:22 AM 14.6570 -65.1610 342° North 489 563 36,000  Level FlightAware ADS-B
Sun 01:44:58 AM 14.7230 -65.1830 342° North 489 563 36,000  Level FlightAware ADS-B
Sun 01:45:34 AM 14.7890 -65.2050 342° North 489 563 36,000  Level FlightAware ADS-B
Sun 01:46:10 AM 14.8550 -65.2270 342° North 489 563 36,000  Level FlightAware ADS-B
Sun 01:46:46 AM 14.9210 -65.2500 341° North 489 563 36,000  Level FlightAware ADS-B
Sun 01:47:44 AM 15.2333 -65.3500 341° North 490 564 36,000  Level San Juan Center
Sun 01:48:44 AM 15.3500 -65.4000 338° Northwest 490 564 36,000  Level San Juan Center
Sun 01:49:45 AM 15.4833 -65.4667 334° Northwest 500 575 36,000  Level San Juan Center
Sun 01:50:45 AM 15.6000 -65.5167 338° Northwest 490 564 36,000  Level San Juan Center
Sun 01:51:45 AM 15.7333 -65.5833 334° Northwest 500 575 36,000  Level San Juan Center
Sun 01:52:45 AM 15.8500 -65.6500 331° Northwest 500 575 36,000  Level San Juan Center
Sun 01:53:45 AM 15.9833 -65.7000 340° North 500 575 36,000  Level San Juan Center
Sun 01:54:45 AM 16.1000 -65.7667 331° Northwest 500 575 36,000  Level San Juan Center
Sun 01:55:45 AM 16.2333 -65.8333 334° Northwest 490 564 36,000  Level San Juan Center
Sun 01:56:46 AM 16.3500 -65.8833 338° Northwest 490 564 36,000  Level San Juan Center
Sun 01:57:46 AM 16.4833 -65.9500 334° Northwest 490 564 36,000  Level San Juan Center
Sun 01:58:46 AM 16.6000 -66.0000 338° Northwest 490 564 36,000  Level San Juan Center
Sun 01:59:46 AM 16.7167 -66.0667 331° Northwest 490 564 36,000  Level San Juan Center
Sun 02:05:15 AM 17.4220 -66.4100 331° Northwest 480 552 36,000  Level FlightAware ADS-B
Sun 02:05:53 AM 17.5000 -66.4480 335° Northwest 482 555 36,000  Level FlightAware ADS-B
Sun 02:06:25 AM 17.5660 -66.4810 335° Northwest 483 556 36,000  Level FlightAware ADS-B
Sun 02:07:00 AM 17.6340 -66.5140 335° Northwest 484 557 36,000  Level FlightAware ADS-B
Sun 02:07:38 AM 17.7140 -66.5530 335° Northwest 483 556 36,000  Level FlightAware ADS-B
Sun 02:08:14 AM 17.7840 -66.5870 335° Northwest 484 557 36,000  Level FlightAware ADS-B
Sun 02:08:46 AM 17.8530 -66.6210 335° Northwest 480 552 36,000  Level FlightAware ADS-B
Sun 02:09:18 AM 17.9180 -66.6530 335° Northwest 476 548 36,000  Level FlightAware ADS-B
Sun 02:09:50 AM 17.9800 -66.6830 335° Northwest 475 547 36,000  Level FlightAware ADS-B
Sun 02:10:26 AM 18.0520 -66.7180 335° Northwest 473 544 36,000  Level FlightAware ADS-B
Sun 02:11:02 AM 18.1240 -66.7540 335° Northwest 472 543 36,000  Level FlightAware ADS-B
Sun 02:11:36 AM 18.1920 -66.7870 335° Northwest 472 543 36,000  Level FlightAware ADS-B
Sun 02:12:12 AM 18.2620 -66.8220 335° Northwest 472 543 36,000  Level FlightAware ADS-B
Sun 02:12:48 AM 18.3340 -66.8570 335° Northwest 472 543 36,000  Level FlightAware ADS-B
Sun 02:13:20 AM 18.3970 -66.8880 335° Northwest 471 542 36,000  Level FlightAware ADS-B
Sun 02:13:56 AM 18.4690 -66.9240 335° Northwest 471 542 36,000  Level FlightAware ADS-B
Sun 02:14:28 AM 18.5310 -66.9540 335° Northwest 471 542 36,000  Level FlightAware ADS-B
Sun 02:15:03 AM 18.5900 -66.9840 334° Northwest 471 542 36,000  Level FlightAware ADS-B
Sun 02:15:39 AM 18.6500 -67.0150 334° Northwest 471 542 36,000  Level FlightAware ADS-B
Sun 02:16:18 AM 18.7500 -67.0620 336° Northwest 469 540 36,000  Level FlightAware ADS-B
Sun 02:17:07 AM 18.8360 -67.1060 334° Northwest 469 540 36,000  Level FlightAware ADS-B
Sun 02:17:44 AM 18.8970 -67.1370 334° Northwest 469 540 36,000  Level FlightAware ADS-B
Sun 02:18:20 AM 18.9570 -67.1680 334° Northwest 469 540 36,000  Level FlightAware ADS-B
Sun 02:18:56 AM 19.0170 -67.1990 334° Northwest 469 540 36,000  Level FlightAware ADS-B
Sun 02:19:30 AM 19.1270 -67.2490 337° Northwest 473 544 36,000  Level FlightAware ADS-B
Sun 02:20:08 AM 19.1900 -67.2820 334° Northwest 473 544 36,000  Level FlightAware ADS-B
Sun 02:21:04 AM 19.3160 -67.3440 335° Northwest 477 549 36,000  Level FlightAware ADS-B
Sun 02:21:37 AM 19.3820 -67.3760 335° Northwest 476 548 36,000  Level FlightAware ADS-B
Sun 02:22:09 AM 19.4460 -67.4080 335° Northwest 475 547 36,000  Level FlightAware ADS-B
Sun 02:22:45 AM 19.5180 -67.4450 334° Northwest 476 548 36,000  Level FlightAware ADS-B
Sun 02:23:23 AM 19.5920 -67.4820 335° Northwest 477 549 36,000  Level FlightAware ADS-B
Sun 02:23:59 AM 19.6660 -67.5180 335° Northwest 478 550 36,000  Level FlightAware ADS-B
Sun 02:24:31 AM 19.7300 -67.5500 335° Northwest 478 550 36,000  Level FlightAware ADS-B
Sun 02:25:08 AM 19.8050 -67.5880 335° Northwest 479 551 36,000  Level FlightAware ADS-B
Sun 02:25:42 AM 19.8720 -67.6220 334° Northwest 479 551 36,000  Level FlightAware ADS-B
Sun 02:26:18 AM 19.9450 -67.6590 335° Northwest 479 551 36,000  Level FlightAware ADS-B
Sun 02:26:52 AM 20.0130 -67.6930 335° Northwest 479 551 36,000  Level FlightAware ADS-B
Sun 02:27:28 AM 20.0850 -67.7290 335° Northwest 479 551 36,000  Level FlightAware ADS-B
Sun 02:27:59 AM 20.1460 -67.7600 334° Northwest 478 550 36,000  Level FlightAware ADS-B
Sun 02:28:39 AM 20.2280 -67.8010 335° Northwest 476 548 36,000  Level FlightAware ADS-B
Sun 02:29:17 AM 20.2960 -67.8360 334° Northwest 476 548 36,000  Level FlightAware ADS-B
Sun 02:29:47 AM 20.3660 -67.8640 339° North 479 551 36,000  Level FlightAware ADS-B
Sun 02:30:23 AM 20.4440 -67.8830 347° North 480 552 36,000  Level FlightAware ADS-B
Sun 02:31:12 AM 20.5500 -67.9090 347° North 481 554 36,000  Level FlightAware ADS-B
Sun 02:31:47 AM 20.6270 -67.9300 346° North 482 555 36,000  Level FlightAware ADS-B
Sun 02:32:25 AM 20.6970 -67.9480 346° North 482 555 36,000  Level FlightAware ADS-B
Sun 02:33:01 AM 20.7630 -67.9660 346° North 482 555 36,000  Level FlightAware ADS-B
Sun 02:33:37 AM 20.8290 -67.9840 346° North 482 555 36,000  Level FlightAware ADS-B
Sun 02:34:13 AM 20.8960 -68.0010 347° North 482 555 36,000  Level FlightAware ADS-B
Sun 02:34:49 AM 20.9620 -68.0190 346° North 482 555 36,000  Level FlightAware ADS-B
Sun 02:35:25 AM 21.0280 -68.0370 346° North 482 555 36,000  Level FlightAware ADS-B
Sun 02:36:01 AM 21.0940 -68.0540 346° North 482 555 36,000  Level FlightAware ADS-B
Sun 02:36:37 AM 21.1600 -68.0720 346° North 482 555 36,000  Level FlightAware ADS-B
Sun 02:37:13 AM 21.2270 -68.0900 346° North 482 555 36,000  Level FlightAware ADS-B
Sun 02:37:49 AM 21.2930 -68.1070 347° North 482 555 36,000  Level FlightAware ADS-B
Sun 02:38:25 AM 21.3590 -68.1250 346° North 482 555 36,000  Level FlightAware ADS-B
Sun 02:39:01 AM 21.4250 -68.1430 346° North 482 555 36,000  Level FlightAware ADS-B
Sun 02:39:37 AM 21.4910 -68.1610 346° North 482 555 36,000  Level FlightAware ADS-B
Sun 02:40:13 AM 21.5580 -68.1780 347° North 482 555 36,000  Level FlightAware ADS-B
Sun 02:40:50 AM 21.6260 -68.1970 345° North 482 555 36,000  Level FlightAware ADS-B
Sun 02:41:26 AM 21.6920 -68.2140 347° North 482 555 36,000  Level FlightAware ADS-B
Sun 02:42:03 AM 21.9658 -68.2800 347° North 479 551 36,000  Level Miami Center
Sun 02:43:03 AM 22.1011 -68.3158 346° North 479 551 36,000  Level Miami Center
Sun 02:44:04 AM 22.2239 -68.3481 346° North 453 521 36,000  Level Miami Center
Sun 02:45:06 AM 22.3614 -68.3861 346° North 495 570 36,000  Level Miami Center
Sun 02:46:03 AM 22.4967 -68.4222 346° North 490 564 36,000  Level Miami Center
Sun 02:47:03 AM 22.6258 -68.4567 346° North 490 564 36,000  Level Miami Center
Sun 02:48:06 AM 22.7589 -68.4906 347° North 490 564 36,000  Level Miami Center
Sun 02:49:05 AM 22.8964 -68.5289 346° North 490 564 36,000  Level Miami Center
Sun 02:50:03 AM 23.0233 -68.5614 347° North 490 564 36,000  Level Miami Center
Sun 02:51:03 AM 23.1608 -68.5997 346° North 489 563 36,000  Level Miami Center
Sun 02:52:06 AM 23.2986 -68.6383 346° North 494 568 36,000  Level Miami Center
Sun 02:53:03 AM 23.4275 -68.6728 346° North 488 562 36,000  Level Miami Center
Sun 02:54:03 AM 23.5542 -68.7031 348° North 488 562 36,000  Level Miami Center
Sun 02:55:03 AM 23.6919 -68.7417 346° North 488 562 36,000  Level Miami Center
Sun 02:56:03 AM 23.8253 -68.7786 346° North 488 562 36,000  Level Miami Center
Sun 02:57:03 AM 23.9608 -68.8175 345° North 495 570 36,000  Level Miami Center
Sun 02:58:03 AM 24.0917 -68.8500 347° North 495 570 36,000  Level Miami Center
Sun 02:59:03 AM 24.2272 -68.8889 345° North 495 570 36,000  Level Miami Center
Sun 03:00:03 AM 24.3436 -68.9203 346° North 495 570 36,000  Level Miami Center
Sun 03:01:03 AM 24.4856 -68.9589 346° North 489 563 36,000  Level Miami Center
Sun 03:02:06 AM 24.6167 -68.9961 346° North 481 554 36,000  Level Miami Center
Sun 03:03:03 AM 24.7442 -68.9994 359° North 469 540 36,000  Level Miami Center
Sun 03:04:04 AM 24.8614 -68.9281 29° Northeast 449 517 36,000  Level Miami Center
Sun 03:04:19 AM 24.6333 -69.0000 346° North 688 792 36,000  Level New York Oceanic (ODAPS)
Sun 03:04:42 AM 24.6333 -69.0000 346° North 473 544 36,000  Level New York Oceanic (ODAPS)
Sun 03:06:04 AM 25.0797 -68.8039 318° Northwest 457 526 36,000  Level Miami Center
Sun 03:06:07 AM 24.9833 -69.0833 318° Northwest 466 536 36,000  Level New York Oceanic (ODAPS)
Sun 03:08:14 AM 25.2667 -69.1500 349° North 445 512 36,000  Level New York Oceanic (ODAPS)
Sun 03:14:00 AM 25.9835 -69.2997 349° North 445 512 36,000  Level FlightAware Transoceanic
Sun 03:15:00 AM 26.1029 -69.3248 349° North 445 512 36,000  Level FlightAware Transoceanic
Sun 03:16:00 AM 26.2224 -69.3500 349° North 445 512 36,000  Level FlightAware Transoceanic
Sun 03:17:00 AM 26.3418 -69.3752 349° North 445 512 36,000  Level FlightAware Transoceanic
Sun 03:17:07 AM 26.3333 -69.3667 349° North 458 527 36,000  Level New York Oceanic (ODAPS)
Sun 03:17:25 AM 26.3333 -69.3667 349° North 269 310 36,000  Level New York Oceanic (ODAPS)
Sun 03:17:51 AM 26.3833 -69.3833 349° North 265 305 36,000  Level New York Oceanic (ODAPS)
Sun 03:18:00 AM 26.4612 -69.4005 349° North 445 512 36,000  Level FlightAware Transoceanic
Sun 03:19:00 AM 26.5807 -69.4258 349° North 445 512 36,000  Level FlightAware Transoceanic
Sun 03:19:43 AM 26.4667 -69.4000 349° North 870 1001 36,000  Level New York Oceanic (ODAPS)
Sun 03:20:00 AM 26.7001 -69.4512 349° North 445 512 36,000  Level FlightAware Transoceanic
Sun 03:20:01 AM 26.4667 -69.4000 349° North 873 1005 36,000  Level New York Oceanic (ODAPS)
Sun 03:21:00 AM 26.8195 -69.4767 349° North 445 512 36,000  Level FlightAware Transoceanic
Sun 03:22:00 AM 26.9389 -69.5022 349° North 445 512 36,000  Level FlightAware Transoceanic
Sun 03:23:00 AM 27.0115 -69.5120 349° North 269 310 36,000  Level FlightAware Transoceanic
Sun 03:24:00 AM 27.1648 -69.5500 349° North 265 305 36,000  Level FlightAware Transoceanic
Sun 03:24:23 AM 26.7167 -69.4500 349° North 421 484 36,000  Level New York Oceanic (ODAPS)
Sun 03:24:41 AM 26.7167 -69.4500 349° North 488 562 36,000  Level New York Oceanic (ODAPS)
Sun 03:24:59 AM 26.7500 -69.4667 349° North 404 465 36,000  Level New York Oceanic (ODAPS)
Sun 03:25:00 AM 27.2764 -69.5740 349° North 265 305 36,000  Level FlightAware Transoceanic
Sun 03:26:00 AM 27.1612 -69.5484 349° North 873 1005 36,000  Level FlightAware Transoceanic
Sun 03:27:00 AM 27.2769 -69.5733 349° North 873 1005 36,000  Level FlightAware Transoceanic
Sun 03:28:00 AM 27.3926 -69.5982 349° North 873 1005 36,000  Level FlightAware Transoceanic
Sun 03:29:00 AM 27.5084 -69.6233 349° North 873 1005 36,000  Level FlightAware Transoceanic
Sun 03:30:00 AM 27.4077 -69.5989 349° North 421 484 36,000  Level FlightAware Transoceanic
Sun 03:31:00 AM 27.4568 -69.6173 349° North 404 465 36,000  Level FlightAware Transoceanic
Sun 03:32:00 AM 27.5746 -69.6425 349° North 404 465 36,000  Level FlightAware Transoceanic
Sun 03:33:00 AM 27.6924 -69.6679 349° North 404 465 36,000  Level FlightAware Transoceanic
Sun 03:33:36 AM 27.7333 -69.6667 349° North 414 476 36,000  Level New York Oceanic (ODAPS)
Sun 03:34:00 AM 27.8102 -69.6933 349° North 404 465 36,000  Level FlightAware Transoceanic
Sun 03:35:00 AM 27.9279 -69.7187 349° North 404 465 36,000  Level FlightAware Transoceanic
Sun 03:36:00 AM 28.0457 -69.7442 349° North 404 465 36,000  Level FlightAware Transoceanic
Sun 03:37:00 AM 28.1635 -69.7698 349° North 404 465 36,000  Level FlightAware Transoceanic
Sun 03:38:00 AM 28.2812 -69.7954 349° North 404 465 36,000  Level FlightAware Transoceanic
Sun 03:39:00 AM 28.4292 -69.8202 349° North 414 476 36,000  Level FlightAware Transoceanic
Sun 03:40:00 AM 28.5452 -69.8460 349° North 414 476 36,000  Level FlightAware Transoceanic
Sun 03:41:00 AM 28.6612 -69.8719 349° North 414 476 36,000  Level FlightAware Transoceanic
Sun 03:42:00 AM 28.7771 -69.8978 349° North 414 476 36,000  Level FlightAware Transoceanic
Sun 03:42:07 AM 28.7000 -69.8833 349° North 419 482 36,000  Level New York Oceanic (ODAPS)
Sun 03:43:00 AM 28.8931 -69.9237 349° North 414 476 36,000  Level FlightAware Transoceanic
Sun 03:44:00 AM 29.0090 -69.9498 349° North 414 476 36,000  Level FlightAware Transoceanic
Sun 03:45:00 AM 29.1250 -69.9758 349° North 414 476 36,000  Level FlightAware Transoceanic
Sun 03:46:00 AM 29.2409 -70.0020 349° North 414 476 36,000  Level FlightAware Transoceanic
Sun 03:47:00 AM 29.3568 -70.0282 349° North 414 476 36,000  Level FlightAware Transoceanic
Sun 03:47:28 AM 29.2833 -70.0167 349° North 427 491 36,000  Level New York Oceanic (ODAPS)
Sun 03:48:00 AM 29.3801 -70.0351 349° North 419 482 36,000  Level FlightAware Transoceanic
Sun 03:49:00 AM 29.4935 -70.0606 349° North 419 482 36,000  Level FlightAware Transoceanic
Sun 03:50:00 AM 29.6068 -70.0862 349° North 419 482 36,000  Level FlightAware Transoceanic
Sun 03:51:00 AM 29.7201 -70.1118 349° North 419 482 36,000  Level FlightAware Transoceanic
Sun 03:52:00 AM 29.8335 -70.1375 349° North 419 482 36,000  Level FlightAware Transoceanic
Sun 03:53:00 AM 29.9534 -70.1660 349° North 427 491 36,000  Level FlightAware Transoceanic
Sun 03:54:00 AM 30.0651 -70.1911 349° North 427 491 36,000  Level FlightAware Transoceanic
Sun 03:55:00 AM 30.1767 -70.2162 349° North 427 491 36,000  Level FlightAware Transoceanic
Sun 03:56:00 AM 30.2883 -70.2414 349° North 427 491 36,000  Level FlightAware Transoceanic
Sun 03:57:00 AM 30.4000 -70.2667 349° North 427 491 36,000  Level FlightAware Transoceanic
Sun 03:57:22 AM 30.3667 -70.2500 337° Northwest 416 479 36,000  Level New York Oceanic (ODAPS)
Sun 03:58:00 AM 30.5212 -70.2943 349° North 427 491 36,000  Level FlightAware Transoceanic
Sun 03:59:00 AM 30.6425 -70.3220 349° North 427 491 36,000  Level FlightAware Transoceanic
Sun 04:00:00 AM 30.7637 -70.3497 349° North 427 491 36,000  Level FlightAware Transoceanic
Sun 04:01:00 AM 30.8849 -70.3775 349° North 427 491 36,000  Level FlightAware Transoceanic
Sun 04:01:20 AM 30.8333 -70.3667 349° North 419 482 36,000  Level New York Oceanic (ODAPS)
Sun 04:02:00 AM 31.0061 -70.4054 349° North 427 491 36,000  Level FlightAware Transoceanic
Sun 04:03:00 AM 31.1148 -70.4305 349° North 416 479 36,000  Level FlightAware Transoceanic
Sun 04:04:00 AM 31.2339 -70.4580 349° North 416 479 36,000  Level FlightAware Transoceanic
Sun 04:05:00 AM 31.3530 -70.4856 349° North 416 479 36,000  Level FlightAware Transoceanic
Sun 04:06:00 AM 31.4722 -70.5133 349° North 416 479 36,000  Level FlightAware Transoceanic
Sun 04:06:35 AM 31.4500 -70.5000 349° North 423 487 36,000  Level New York Oceanic (ODAPS)
Sun 04:07:00 AM 31.5528 -70.5330 349° North 419 482 36,000  Level FlightAware Transoceanic
Sun 04:08:00 AM 31.6727 -70.5609 349° North 419 482 36,000  Level FlightAware Transoceanic
Sun 04:09:00 AM 31.7926 -70.5890 349° North 419 482 36,000  Level FlightAware Transoceanic
Sun 04:10:00 AM 31.9125 -70.6171 349° North 419 482 36,000  Level FlightAware Transoceanic
Sun 04:11:00 AM 32.0324 -70.6452 349° North 419 482 36,000  Level FlightAware Transoceanic
Sun 04:12:00 AM 32.1672 -70.6691 349° North 423 487 36,000  Level FlightAware Transoceanic
Sun 04:13:00 AM 32.2867 -70.6975 349° North 423 487 36,000  Level FlightAware Transoceanic
Sun 04:14:00 AM 32.4062 -70.7260 349° North 423 487 36,000  Level FlightAware Transoceanic
Sun 04:15:00 AM 32.5257 -70.7546 349° North 423 487 36,000  Level FlightAware Transoceanic
Sun 04:15:12 AM 32.4500 -70.7333 349° North 427 491 36,000  Level New York Oceanic (ODAPS)
Sun 04:16:00 AM 32.6452 -70.7832 349° North 423 487 36,000  Level FlightAware Transoceanic
Sun 04:17:00 AM 32.7647 -70.8120 349° North 423 487 36,000  Level FlightAware Transoceanic
Sun 04:18:00 AM 32.8842 -70.8408 349° North 423 487 36,000  Level FlightAware Transoceanic
Sun 04:19:00 AM 33.0037 -70.8697 349° North 423 487 36,000  Level FlightAware Transoceanic
Sun 04:20:00 AM 33.1232 -70.8986 349° North 423 487 36,000  Level FlightAware Transoceanic
Sun 04:21:00 AM 33.1783 -70.9094 348° North 427 491 36,000  Level FlightAware Transoceanic
Sun 04:22:00 AM 33.2996 -70.9390 348° North 427 491 36,000  Level FlightAware Transoceanic
Sun 04:23:00 AM 33.4210 -70.9687 348° North 427 491 36,000  Level FlightAware Transoceanic
Sun 04:24:00 AM 33.5423 -70.9985 348° North 427 491 36,000  Level FlightAware Transoceanic
Sun 04:25:00 AM 33.6636 -71.0283 348° North 427 491 36,000  Level FlightAware Transoceanic
Sun 04:25:59 AM 33.6833 -71.0333 348° North 431 496 36,000  Level New York Oceanic (ODAPS)
Sun 04:26:00 AM 33.7850 -71.0583 348° North 427 491 36,000  Level FlightAware Transoceanic
Sun 04:27:00 AM 33.9063 -71.0883 348° North 427 491 36,000  Level FlightAware Transoceanic
Sun 04:28:00 AM 34.0276 -71.1185 348° North 427 491 36,000  Level FlightAware Transoceanic
Sun 04:29:00 AM 34.1489 -71.1487 348° North 427 491 36,000  Level FlightAware Transoceanic
Sun 04:29:08 AM 34.0667 -71.1333 348° North 432 497 36,000  Level New York Oceanic (ODAPS)
Sun 04:30:00 AM 34.2702 -71.1790 348° North 427 491 36,000  Level FlightAware Transoceanic
Sun 04:31:00 AM 34.3915 -71.2094 348° North 427 491 36,000  Level FlightAware Transoceanic
Sun 04:32:00 AM 34.4322 -71.2197 348° North 431 496 36,000  Level FlightAware Transoceanic
Sun 04:33:00 AM 34.5570 -71.2511 348° North 431 496 36,000  Level FlightAware Transoceanic
Sun 04:34:00 AM 34.6817 -71.2825 348° North 431 496 36,000  Level FlightAware Transoceanic
Sun 04:34:11 AM 34.6667 -71.2833 348° North 437 503 36,000  Level New York Oceanic (ODAPS)
Sun 04:35:00 AM 34.8133 -71.3197 348° North 432 497 36,000  Level FlightAware Transoceanic
Sun 04:36:00 AM 34.9377 -71.3512 348° North 432 497 36,000  Level FlightAware Transoceanic
Sun 04:37:00 AM 35.0621 -71.3826 348° North 432 497 36,000  Level FlightAware Transoceanic
Sun 04:38:00 AM 35.1865 -71.4142 348° North 432 497 36,000  Level FlightAware Transoceanic
Sun 04:39:00 AM 35.3109 -71.4459 348° North 432 497 36,000  Level FlightAware Transoceanic
Sun 04:40:00 AM 35.3852 -71.4652 348° North 437 503 36,000  Level FlightAware Transoceanic
Sun 04:41:00 AM 35.5050 -71.4959 348° North 437 503 36,000  Level FlightAware Transoceanic
Sun 04:42:00 AM 35.6247 -71.5266 348° North 437 503 36,000  Level FlightAware Transoceanic
Sun 04:42:12 AM 35.6333 -71.5333 348° North 450 518 36,000  Level New York Oceanic (ODAPS)
Sun 04:42:56 AM 35.7333 -71.5500 348° North 451 519 36,000  Level New York Oceanic (ODAPS)
Sun 04:43:00 AM 35.7444 -71.5574 348° North 437 503 36,000  Level FlightAware Transoceanic
Sun 04:43:40 AM 35.7833 -71.5667 348° North 451 519 36,000  Level New York Oceanic (ODAPS)
Sun 04:44:00 AM 35.8641 -71.5883 348° North 437 503 36,000  Level FlightAware Transoceanic
Sun 04:45:00 AM 35.9838 -71.6193 348° North 437 503 36,000  Level FlightAware Transoceanic
Sun 04:46:00 AM 36.1035 -71.6504 348° North 437 503 36,000 -917 Level FlightAware Transoceanic
Sun 04:46:12 AM 36.1444 -71.6533 348° North 470 541 34,900  Descending New York Center
Sun 04:47:00 AM 36.2232 -71.6816 348° North 437 503 36,000  Climbing FlightAware Transoceanic
Sun 04:47:12 AM 36.2650 -71.6856 348° North 456 525 34,900  Descending New York Center
Sun 04:48:00 AM 36.3478 -71.7168 348° North 450 518 36,000 100 Climbing FlightAware Transoceanic
Sun 04:48:12 AM 36.3900 -71.7181 348° North 456 525 35,000  Descending New York Center
Sun 04:49:00 AM 36.4835 -71.7493 348° North 451 519 36,000 -100 Climbing FlightAware Transoceanic
Sun 04:49:12 AM 36.5189 -71.7533 348° North 456 525 34,900  Descending New York Center
Sun 04:50:00 AM 36.6002 -71.7801 348° North 451 519 36,000 100 Climbing FlightAware Transoceanic
Sun 04:50:12 AM 36.6417 -71.7886 347° North 462 532 35,000 -833 Descending New York Center
Sun 04:51:12 AM 36.7750 -71.8192 350° North 459 528 35,000  Level New York Center
Sun 04:52:12 AM 36.8978 -71.8572 346° North 459 528 35,000  Level New York Center
Sun 04:53:12 AM 37.0206 -71.8878 349° North 459 528 35,000  Level New York Center
Sun 04:54:12 AM 37.1411 -71.9364 342° North 458 527 35,000  Level New York Center
Sun 04:55:12 AM 37.2614 -71.9958 339° North 463 533 35,000  Level New York Center
Sun 04:56:12 AM 37.3858 -72.0556 339° North 463 533 35,000 -896 Level New York Center
Sun 05:02:15 AM 38.1130 -72.4280 339° North 29,100 -1,030 Descending FlightAware ADS-B
Sun 05:02:54 AM 38.1940 -72.4690 338° Northwest 452 520 28,100 -1,622 Descending FlightAware ADS-B
Sun 05:03:29 AM 38.2630 -72.5040 338° Northwest 451 519 27,100 -857 Descending FlightAware ADS-B
Sun 05:04:11 AM 38.3320 -72.5420 337° Northwest 451 519 27,000 -77 Descending FlightAware ADS-B
Sun 05:04:47 AM 38.3910 -72.5740 337° Northwest 451 519 27,000  Level FlightAware ADS-B
Sun 05:05:24 AM 38.4520 -72.6060 338° Northwest 451 519 27,000 -3,045 Level FlightAware ADS-B
Sun 05:05:54 AM 38.5320 -72.6440 340° North 436 502 23,600 -4,000 Descending FlightAware ADS-B
Sun 05:06:30 AM 38.6030 -72.6810 338° Northwest 431 496 22,600 -1,543 Descending FlightAware ADS-B
Sun 05:07:04 AM 38.6640 -72.7120 338° Northwest 421 484 21,800 -1,367 Descending FlightAware ADS-B
Sun 05:07:49 AM 38.7440 -72.7540 338° Northwest 416 479 20,800 -1,350 Descending FlightAware ADS-B
Sun 05:08:24 AM 38.8130 -72.7900 338° Northwest 418 481 20,000 -1,200 Descending FlightAware ADS-B
Sun 05:08:59 AM 38.8670 -72.8190 337° Northwest 415 478 19,400 -1,108 Descending FlightAware ADS-B
Sun 05:09:29 AM 38.9220 -72.8470 338° Northwest 403 464 18,800 -1,273 Descending FlightAware ADS-B
Sun 05:10:05 AM 38.9890 -72.8830 337° Northwest 398 458 18,000 -1,268 Descending FlightAware ADS-B
Sun 05:10:40 AM 39.0500 -72.9150 338° Northwest 401 461 17,300 -1,111 Descending FlightAware ADS-B
Sun 05:11:26 AM 39.1250 -72.9550 338° Northwest 387 445 16,500 -1,103 Descending FlightAware ADS-B
Sun 05:12:07 AM 39.1920 -72.9900 338° Northwest 386 444 15,700 -1,378 Descending FlightAware ADS-B
Sun 05:12:40 AM 39.2490 -73.0200 338° Northwest 382 440 14,800 -1,412 Descending FlightAware ADS-B
Sun 05:13:15 AM 39.3110 -73.0530 338° Northwest 387 445 14,100 -761 Descending FlightAware ADS-B
Sun 05:13:51 AM 39.3570 -73.0780 337° Northwest 387 445 13,900 -1,029 Descending FlightAware ADS-B
Sun 05:14:25 AM 39.4190 -73.1110 338° Northwest 367 422 12,900 -1,478 Descending FlightAware ADS-B
Sun 05:15:00 AM 39.4790 -73.1430 338° Northwest 366 421 12,200 -1,333 Descending FlightAware ADS-B
Sun 05:15:37 AM 39.5380 -73.1750 337° Northwest 366 421 11,300 -923 Descending FlightAware ADS-B
Sun 05:16:31 AM 39.6160 -73.2170 337° Northwest 363 418 10,800 -839 Descending FlightAware ADS-B
Sun 05:17:10 AM 39.6780 -73.2500 338° Northwest 342 394 10,000 -750 Descending FlightAware ADS-B
Sun 05:17:35 AM 39.7090 -73.2670 337° Northwest 342 394 10,000 -698 Level FlightAware ADS-B
Sun 05:17:53 AM 39.7400 -73.2830 338° Northwest 324 373 9,500 -682 Descending FlightAware ADS-B
Sun 05:18:19 AM 39.7710 -73.3000 337° Northwest 324 373 9,500  Level FlightAware ADS-B
Sun 05:18:44 AM 39.8000 -73.3160 337° Northwest 324 373 9,500  Level FlightAware ADS-B
Sun 05:19:08 AM 39.8280 -73.3320 336° Northwest 324 373 9,500  Level FlightAware ADS-B
Sun 05:19:20 AM 39.8420 -73.3390 339° North 324 373 9,500 -2,276 Level FlightAware ADS-B
Sun 05:19:37 AM 39.8750 -73.3560 338° Northwest 286 329 8,400 -1,385 Descending FlightAware ADS-B
Sun 05:20:12 AM 39.9110 -73.3760 337° Northwest 287 330 8,300 -102 Descending FlightAware ADS-B
Sun 05:20:36 AM 39.9360 -73.3900 337° Northwest 287 330 8,300 -1,714 Level FlightAware ADS-B
Sun 05:20:47 AM 39.9550 -73.4070 326° Northwest 275 316 7,300 -1,667 Descending FlightAware ADS-B
Sun 05:21:12 AM 39.9750 -73.4310 317° Northwest 275 316 7,300 -125 Level FlightAware ADS-B
Sun 05:21:35 AM 40.0030 -73.4600 322° Northwest 288 331 7,200 -171 Descending FlightAware ADS-B
Sun 05:21:47 AM 40.0190 -73.4650 347° North 295 339 7,200 -143 Level FlightAware ADS-B
Sun 05:22:17 AM 40.0550 -73.4700 354° North 296 341 7,100 -1,038 Descending FlightAware ADS-B
Sun 05:22:39 AM 40.0910 -73.4660 North 292 336 6,300 -1,615 Descending FlightAware ADS-B
Sun 05:23:09 AM 40.1270 -73.4660 360° North 289 333 5,700 -1,222 Descending FlightAware ADS-B
Sun 05:23:33 AM 40.1640 -73.4660 360° North 287 330 5,200 -1,245 Descending FlightAware ADS-B
Sun 05:24:02 AM 40.1970 -73.4660 360° North 287 330 4,600 -1,227 Descending FlightAware ADS-B
Sun 05:24:17 AM 40.2200 -73.4680 356° North 282 325 4,300 -1,050 Descending FlightAware ADS-B
Sun 05:24:42 AM 40.2520 -73.4760 349° North 273 314 3,900 -980 Descending FlightAware ADS-B
Sun 05:25:06 AM 40.2820 -73.4870 344° North 269 310 3,500 -955 Descending FlightAware ADS-B
Sun 05:25:26 AM 40.3050 -73.4950 345° North 263 303 3,200 -649 Descending FlightAware ADS-B
Sun 05:25:43 AM 40.3220 -73.5010 345° North 258 297 3,100 -667 Descending FlightAware ADS-B
Sun 05:26:02 AM 40.3450 -73.5090 345° North 249 287 2,800 -857 Descending FlightAware ADS-B
Sun 05:26:25 AM 40.3720 -73.5180 346° North 241 277 2,500 -818 Descending FlightAware ADS-B
Sun 05:26:46 AM 40.3950 -73.5260 345° North 241 277 2,200 -400 Descending FlightAware ADS-B
Sun 05:27:10 AM 40.4160 -73.5340 344° North 241 277 2,200  Level FlightAware ADS-B
Sun 05:27:30 AM 40.4430 -73.5430 346° North 242 278 2,200  Level FlightAware ADS-B
Sun 05:27:54 AM 40.4680 -73.5520 345° North 241 277 2,200  Level FlightAware ADS-B
Sun 05:28:13 AM 40.4860 -73.5580 346° North 238 274 2,200  Level FlightAware ADS-B
Sun 05:28:33 AM 40.5080 -73.5660 345° North 219 252 2,200  Level FlightAware ADS-B
Sun 05:28:53 AM 40.5260 -73.5720 346° North 198 228 2,200  Level FlightAware ADS-B
Sun 05:29:17 AM 40.5470 -73.5800 344° North 169 194 2,200  Level FlightAware ADS-B
Sun 05:29:37 AM 40.5600 -73.5860 341° North 153 176 2,200  Level FlightAware ADS-B
Sun 05:29:54 AM 40.5690 -73.5960 320° Northwest 156 180 2,200  Level FlightAware ADS-B
Sun 05:30:06 AM 40.5750 -73.6060 308° West 158 182 2,200  Level FlightAware ADS-B
Sun 05:30:26 AM 40.5810 -73.6230 295° West 159 183 2,200  Level FlightAware ADS-B
Sun 05:30:49 AM 40.5910 -73.6430 303° West 156 180 2,200 -140 Level FlightAware ADS-B
Sun 05:31:09 AM 40.5980 -73.6580 302° West 157 181 2,100 -600 Descending FlightAware ADS-B
Sun 05:31:29 AM 40.6050 -73.6740 300° West 139 160 1,800 -900 Descending FlightAware ADS-B
Sun 05:31:49 AM 40.6120 -73.6880 303° West 136 157 1,500 -818 Descending FlightAware ADS-B
Sun 05:32:13 AM 40.6200 -73.7060 300° West 139 160 1,200 -682 Descending FlightAware ADS-B
Sun 05:32:33 AM 40.6260 -73.7200 299° West 142 163 1,000 -750 Descending FlightAware ADS-B
Sun 05:32:53 AM 40.6330 -73.7350 302° West 143 165 700 -750 Descending FlightAware ADS-B
Sun 05:33:13 AM 40.6390 -73.7500 298° West 146 168 500 -732 Descending FlightAware ADS-B
Sun 05:33:34 AM 40.6470 -73.7660 303° West 147 169 200 -857 Descending FlightAware ADS-B
Sun 05:33:57 AM 40.6530 -73.7790 301° West 70 81 -522 Descending FlightAware ADS-B

Login

Don't have an account? Register now (free) for customized features, flight alerts, and more!